Date,TemperatureHighF,TemperatureAvgF,TemperatureLowF,DewpointHighF,DewpointAvgF,DewpointLowF,HumidityHigh,HumidityAvg,HumidityLow,PressureMaxIn,PressureMinIn,WindSpeedMaxMPH,WindSpeedAvgMPH,GustSpeedMaxMPH,PrecipitationSumIn
2013-11-1,87,71,52,87,71,52,99,99,99,29.64,29.59,9,1,9,0.01
2013-11-2,62,52,43,62,52,43,99,99,99,29.40,29.29,5,2,5,0.00
2013-11-3,62,47,35,62,46,35,99,99,99,29.78,29.57,9,2,9,0.00
2013-11-4,72,53,33,72,53,32,99,99,99,29.91,29.83,8,4,8,0.00
2013-11-5,77,55,42,77,55,42,99,99,99,29.94,29.80,5,1,7,0.00
2013-11-6,79,67,50,78,67,50,99,99,99,29.77,29.55,19,8,21,0.00
2013-11-7,65,53,43,65,53,43,99,99,87,29.75,29.51,11,4,17,0.00
2013-11-8,59,41,30,58,41,29,99,99,99,29.89,29.78,14,2,14,0.00
2013-11-9,56,44,28,56,44,28,99,99,99,29.85,29.73,11,3,11,0.00
2013-11-10,74,56,37,65,39,23,99,62,20,29.83,29.72,8,2,8,0.00
2013-11-11,68,51,30,68,38,24,99,66,30,29.84,29.67,8,2,8,0.00
2013-11-12,52,43,30,51,40,17,99,90,46,30.03,29.66,14,6,16,0.00
2013-11-13,47,32,24,47,30,16,99,91,60,30.17,30.01,14,5,15,0.00
2013-11-14,65,46,19,64,45,19,99,97,68,30.03,29.83,9,2,11,0.00
2013-11-15,50,44,36,49,42,28,99,95,48,29.84,29.69,11,2,11,0.00
2013-11-16,70,57,43,61,55,43,99,92,69,29.75,29.60,17,4,17,0.87
2013-11-17,70,66,63,69,63,59,99,91,74,29.61,29.32,18,10,21,0.66
2013-11-18,69,58,47,69,44,31,99,63,30,29.63,29.33,15,4,19,0.20
2013-11-19,56,46,38,34,28,22,80,50,27,29.72,29.62,17,6,17,0.00
2013-11-20,67,51,32,38,28,15,99,49,15,29.83,29.68,10,3,11,0.00
2013-11-21,66,53,40,54,43,32,99,70,44,29.87,29.77,11,3,11,0.00
2013-11-22,60,56,52,60,56,52,99,99,98,29.81,29.68,10,4,10,0.13
2013-11-23,53,45,36,52,37,18,99,76,47,29.87,29.68,14,5,14,0.05
2013-11-24,40,30,23,16,7,-2,65,39,16,30.08,29.93,18,6,21,0.05
2013-11-25,39,32,25,20,11,6,60,44,28,30.00,29.81,6,2,6,0.00
2013-11-26,42,38,32,42,38,32,99,99,99,29.73,29.29,11,2,11,1.69
2013-11-27,36,31,26,36,26,15,99,81,55,29.83,29.35,15,4,18,0.08
2013-11-28,47,30,17,25,18,8,99,67,20,30.01,29.87,7,1,9,0.08
2013-11-29,54,37,21,36,21,10,99,62,17,30.11,30.00,8,2,8,0.08
2013-11-30,58,37,24,41,27,21,99,73,24,30.08,29.84,8,2,11,0.08